Cecil, New Jersey
Current Conditions -  °F | °C
As of 2:54 AM on Thursday 29 Jan 2015 (Local Time) from KMIV Reporting Station
Clear Clear  
Wind Chill: 15°   Ceiling: Unl
Heat Index: 15°   Visibility: 10mi
Dew Point:   Wind: 0mph
Humidity: 74%   Direction: NA
Pressure: 30.3"   Gusts: NA
Location:  39.6478°N, 74.9514°W
Report Text: KMIV 290754Z AUTO 00000KT 10SM CLR M09/M13 A3030 RMK AO2 SLP261 T10941133
Loading
Personal Weather Stations






























Interactive Weather Map New forecast layout! Learn more

10-Day Weather Forecast

Advertisements
Track Severe Weather on mobile